createdAt,value
2022-09-22T00:00:22.188Z,3.80
2022-09-22T00:01:22.267Z,6.50
2022-09-22T00:02:22.241Z,5.70
2022-09-22T00:03:22.134Z,3.60
2022-09-22T00:04:22.137Z,4.90
2022-09-22T00:05:22.134Z,2.80
2022-09-22T00:06:22.097Z,6.60
2022-09-22T00:07:22.172Z,4.70
2022-09-22T00:08:22.076Z,7.70
2022-09-22T00:09:22.077Z,5.80
2022-09-22T00:10:22.068Z,4.70
2022-09-22T00:11:22.036Z,4.80
2022-09-22T00:12:22.045Z,3.80
2022-09-22T00:13:22.007Z,4.20
2022-09-22T00:14:21.998Z,4.40
2022-09-22T00:15:22.128Z,4.20
2022-09-22T00:16:21.975Z,5.40
2022-09-22T00:17:21.984Z,3.30
2022-09-22T00:18:21.941Z,5.40
2022-09-22T00:19:21.931Z,6.30
2022-09-22T00:20:21.964Z,5.50
2022-09-22T00:21:21.902Z,4.50
2022-09-22T00:22:21.921Z,5.50
2022-09-22T00:23:21.917Z,4.10
2022-09-22T00:24:21.889Z,4.70
2022-09-22T00:25:21.853Z,6.40
2022-09-22T00:26:21.837Z,3.80
2022-09-22T00:27:21.830Z,6.10
2022-09-22T00:28:21.884Z,3.40
2022-09-22T00:29:21.818Z,3.50
2022-09-22T00:30:21.800Z,4.40
2022-09-22T00:31:21.831Z,4.70
2022-09-22T00:32:21.782Z,3.20
2022-09-22T00:33:21.758Z,3.40
2022-09-22T00:34:21.735Z,6.20
2022-09-22T00:35:21.728Z,8.60
2022-09-22T00:36:21.711Z,5.20
2022-09-22T00:37:21.707Z,5.30
2022-09-22T00:38:21.703Z,4.50
2022-09-22T00:39:21.675Z,5.70
2022-09-22T00:40:21.709Z,6.00
2022-09-22T00:41:21.842Z,5.00
2022-09-22T00:42:21.623Z,4.50
2022-09-22T00:43:21.637Z,5.00
2022-09-22T00:44:21.638Z,4.40
2022-09-22T00:45:21.606Z,4.00
2022-09-22T00:46:21.706Z,4.60
2022-09-22T00:47:21.571Z,4.90
2022-09-22T00:48:21.554Z,5.40
2022-09-22T00:49:21.562Z,4.80
2022-09-22T00:50:21.548Z,5.70
2022-09-22T00:51:21.515Z,5.30
2022-09-22T00:52:21.506Z,6.00
2022-09-22T00:53:21.516Z,4.30
2022-09-22T00:54:21.550Z,3.80
2022-09-22T00:55:21.512Z,4.70
2022-09-22T00:56:21.444Z,3.60
2022-09-22T00:57:21.423Z,5.10
2022-09-22T00:58:21.413Z,3.70
2022-09-22T00:59:21.427Z,5.90
2022-09-22T01:00:21.402Z,5.20
2022-09-22T01:01:21.534Z,3.90
2022-09-22T01:02:21.366Z,4.10
2022-09-22T01:03:23.151Z,4.30
2022-09-22T01:04:21.352Z,8.70
2022-09-22T01:05:21.351Z,3.60
2022-09-22T01:06:21.335Z,4.80
2022-09-22T01:07:21.314Z,8.40
2022-09-22T01:08:21.277Z,3.60
2022-09-22T01:09:21.313Z,5.30
2022-09-22T01:10:21.254Z,3.80
2022-09-22T01:11:21.275Z,4.70
2022-09-22T01:12:21.239Z,4.40
2022-09-22T01:13:21.215Z,4.70
2022-09-22T01:14:21.206Z,5.90
2022-09-22T01:15:21.201Z,4.80
2022-09-22T01:16:21.267Z,5.50
2022-09-22T01:17:21.233Z,4.00
2022-09-22T01:18:21.175Z,6.20
2022-09-22T01:19:21.153Z,6.20
2022-09-22T01:20:21.131Z,10.70
2022-09-22T01:21:21.117Z,5.80
2022-09-22T01:22:21.112Z,5.10
2022-09-22T01:23:21.141Z,4.30
2022-09-22T01:24:21.110Z,7.50
2022-09-22T01:25:21.085Z,6.40
2022-09-22T01:26:21.045Z,4.60
2022-09-22T01:27:21.088Z,5.10
2022-09-22T01:28:21.037Z,6.10
2022-09-22T01:29:21.004Z,4.30
2022-09-22T01:30:21.015Z,5.70
2022-09-22T01:31:21.053Z,9.60
2022-09-22T01:32:21.022Z,6.30
2022-09-22T01:33:20.954Z,4.40
2022-09-22T01:34:20.968Z,5.40
2022-09-22T01:35:20.935Z,6.70
2022-09-22T01:36:20.927Z,6.30
2022-09-22T01:37:20.901Z,4.70
2022-09-22T01:38:20.893Z,6.20
2022-09-22T01:39:20.893Z,4.60
2022-09-22T01:40:20.910Z,3.90
2022-09-22T01:41:20.855Z,4.70
2022-09-22T01:42:20.862Z,7.10
2022-09-22T01:43:20.842Z,5.50
2022-09-22T01:44:20.827Z,6.80
2022-09-22T01:45:20.810Z,5.60
2022-09-22T01:46:20.863Z,4.70
2022-09-22T01:47:20.772Z,6.10
2022-09-22T01:48:20.780Z,4.60
2022-09-22T01:49:20.760Z,4.70
2022-09-22T01:50:20.761Z,5.70
2022-09-22T01:51:20.713Z,8.60
2022-09-22T01:52:20.705Z,5.60
2022-09-22T01:53:20.719Z,7.70
2022-09-22T01:54:20.674Z,6.30
2022-09-22T01:55:20.658Z,4.30
2022-09-22T01:56:20.653Z,5.40
2022-09-22T01:57:20.643Z,6.40
2022-09-22T01:58:20.652Z,5.90
2022-09-22T01:59:20.613Z,5.40
2022-09-22T02:00:20.814Z,6.30
2022-09-22T02:01:20.632Z,6.50
2022-09-22T02:02:20.698Z,4.70
2022-09-22T02:03:20.586Z,6.30
2022-09-22T02:04:22.333Z,6.80
2022-09-22T02:05:20.543Z,5.10
2022-09-22T02:06:20.533Z,5.50
2022-09-22T02:07:20.503Z,6.10
2022-09-22T02:08:20.522Z,5.30
2022-09-22T02:09:20.517Z,4.60
2022-09-22T02:10:20.477Z,5.50
2022-09-22T02:11:20.447Z,6.10
2022-09-22T02:12:20.445Z,5.00
2022-09-22T02:13:20.432Z,7.70
2022-09-22T02:14:20.433Z,5.30
2022-09-22T02:15:20.430Z,4.40
2022-09-22T02:16:20.437Z,5.80
2022-09-22T02:17:20.399Z,4.50
2022-09-22T02:18:20.359Z,5.40
2022-09-22T02:19:20.386Z,5.80
2022-09-22T02:20:20.339Z,5.50
2022-09-22T02:21:20.339Z,5.90
2022-09-22T02:22:20.309Z,5.10
2022-09-22T02:23:20.296Z,4.80
2022-09-22T02:24:20.297Z,3.80
2022-09-22T02:25:20.271Z,4.20
2022-09-22T02:26:20.287Z,6.80
2022-09-22T02:27:20.245Z,5.10
2022-09-22T02:28:20.230Z,9.00
2022-09-22T02:29:20.218Z,6.30
2022-09-22T02:30:20.204Z,5.50
2022-09-22T02:31:20.886Z,7.30
2022-09-22T02:32:20.497Z,5.50
2022-09-22T02:33:20.169Z,6.10
2022-09-22T02:34:20.149Z,9.20
2022-09-22T02:35:20.150Z,5.00
2022-09-22T02:36:20.128Z,5.40
2022-09-22T02:37:20.117Z,8.50
2022-09-22T02:38:20.431Z,4.70
2022-09-22T02:39:20.095Z,6.90
2022-09-22T02:40:20.120Z,6.80
2022-09-22T02:41:20.074Z,5.80
2022-09-22T02:42:20.059Z,6.30
2022-09-22T02:43:20.063Z,4.40
2022-09-22T02:44:20.024Z,6.40
2022-09-22T02:45:20.003Z,6.20
2022-09-22T02:46:20.026Z,5.00
2022-09-22T02:47:19.980Z,5.10
2022-09-22T02:48:20.047Z,5.40
2022-09-22T02:49:19.954Z,7.40
2022-09-22T02:50:19.940Z,6.20
2022-09-22T02:51:19.926Z,5.20
2022-09-22T02:52:19.918Z,5.60
2022-09-22T02:53:19.918Z,5.90
2022-09-22T02:54:19.894Z,8.80
2022-09-22T02:55:19.883Z,7.00
2022-09-22T02:56:19.883Z,6.20
2022-09-22T02:57:19.864Z,6.70
2022-09-22T02:58:19.853Z,4.50
2022-09-22T02:59:19.826Z,7.60
2022-09-22T03:00:19.807Z,6.70
2022-09-22T03:01:19.867Z,7.90
2022-09-22T03:02:19.807Z,4.80
2022-09-22T03:03:19.778Z,5.70
2022-09-22T03:04:19.767Z,7.40
2022-09-22T03:05:19.767Z,6.30
2022-09-22T03:06:19.733Z,8.80
2022-09-22T03:07:19.712Z,5.30
2022-09-22T03:08:19.739Z,4.30
2022-09-22T03:09:19.693Z,5.40
2022-09-22T03:10:19.694Z,5.90
2022-09-22T03:11:19.654Z,5.30
2022-09-22T03:12:19.671Z,5.30
2022-09-22T03:13:19.645Z,6.80
2022-09-22T03:14:19.631Z,9.10
2022-09-22T03:15:21.742Z,4.80
2022-09-22T03:16:19.637Z,5.60
2022-09-22T03:17:19.606Z,6.30
2022-09-22T03:18:19.590Z,5.60
2022-09-22T03:19:19.561Z,5.90
2022-09-22T03:20:19.581Z,5.70
2022-09-22T03:21:19.530Z,6.50
2022-09-22T03:22:19.518Z,4.70
2022-09-22T03:23:19.498Z,6.10
2022-09-22T03:24:19.560Z,5.70
2022-09-22T03:25:19.487Z,5.30
2022-09-22T03:26:19.486Z,4.70
2022-09-22T03:27:19.478Z,6.60
2022-09-22T03:28:19.438Z,6.10
2022-09-22T03:29:19.440Z,5.60
2022-09-22T03:30:19.429Z,7.20
2022-09-22T03:31:19.497Z,5.70
2022-09-22T03:32:19.422Z,5.60
2022-09-22T03:33:19.370Z,6.30
2022-09-22T03:34:19.408Z,9.50
2022-09-22T03:35:19.357Z,5.90
2022-09-22T03:36:19.355Z,6.50
2022-09-22T03:37:19.346Z,6.10
2022-09-22T03:38:19.309Z,6.10
2022-09-22T03:39:19.840Z,6.20
2022-09-22T03:40:19.341Z,5.90
2022-09-22T03:41:19.279Z,6.70
2022-09-22T03:42:19.275Z,5.20
2022-09-22T03:43:19.243Z,5.90
2022-09-22T03:44:19.267Z,5.20
2022-09-22T03:45:19.216Z,8.10
2022-09-22T03:46:19.302Z,6.30
2022-09-22T03:47:19.188Z,7.00
2022-09-22T03:48:19.194Z,6.40
2022-09-22T03:49:19.210Z,8.70
2022-09-22T03:50:19.162Z,7.40
2022-09-22T03:51:19.148Z,5.10
2022-09-22T03:52:19.121Z,5.80
2022-09-22T03:53:19.120Z,7.50
2022-09-22T03:54:19.109Z,5.80
2022-09-22T03:55:19.083Z,5.00
2022-09-22T03:56:19.081Z,5.30
2022-09-22T03:57:19.073Z,6.40
2022-09-22T03:58:19.036Z,6.20
2022-09-22T03:59:19.032Z,6.40
2022-09-22T04:00:19.038Z,6.20
2022-09-22T04:01:19.090Z,6.50
2022-09-22T04:02:19.047Z,5.80
2022-09-22T04:03:18.968Z,5.50
2022-09-22T04:04:18.977Z,6.40
2022-09-22T04:05:18.962Z,7.60
2022-09-22T04:06:18.956Z,5.80
2022-09-22T04:07:18.972Z,8.70
2022-09-22T04:08:18.944Z,7.60
2022-09-22T04:09:18.891Z,5.70
2022-09-22T04:10:18.882Z,5.40
2022-09-22T04:11:18.873Z,6.50
2022-09-22T04:12:18.879Z,7.60
2022-09-22T04:13:18.860Z,7.40
2022-09-22T04:14:18.845Z,7.70
2022-09-22T04:15:18.814Z,7.10
2022-09-22T04:16:18.886Z,10.30
2022-09-22T04:17:18.838Z,6.40
2022-09-22T04:18:18.794Z,6.30
2022-09-22T04:19:18.781Z,5.90
2022-09-22T04:20:18.822Z,6.40
2022-09-22T04:21:18.725Z,7.50
2022-09-22T04:22:18.744Z,6.00
2022-09-22T04:23:18.708Z,6.80
2022-09-22T04:24:18.721Z,5.00
2022-09-22T04:25:18.699Z,6.30
2022-09-22T04:26:18.668Z,7.30
2022-09-22T04:27:20.311Z,6.10
2022-09-22T04:28:18.688Z,7.00
2022-09-22T04:29:18.634Z,6.70
2022-09-22T04:30:18.691Z,6.20
2022-09-22T04:31:18.634Z,7.30
2022-09-22T04:32:18.621Z,7.00
2022-09-22T04:33:18.585Z,6.40
2022-09-22T04:34:18.583Z,8.70
2022-09-22T04:35:18.577Z,7.50
2022-09-22T04:36:18.542Z,5.10
2022-09-22T04:37:18.536Z,5.90
2022-09-22T04:38:18.534Z,7.00
2022-09-22T04:39:23.567Z,6.40
2022-09-22T04:40:18.586Z,6.50
2022-09-22T04:41:18.505Z,6.50
2022-09-22T04:42:18.476Z,5.90
2022-09-22T04:43:18.470Z,6.90
2022-09-22T04:44:18.472Z,7.50
2022-09-22T04:45:18.437Z,6.90
2022-09-22T04:46:18.487Z,6.80
2022-09-22T04:47:18.392Z,7.20
2022-09-22T04:48:18.374Z,6.90
2022-09-22T04:49:18.404Z,7.10
2022-09-22T04:50:18.368Z,8.20
2022-09-22T04:51:18.359Z,7.60
2022-09-22T04:52:18.333Z,7.70
2022-09-22T04:53:18.336Z,6.50
2022-09-22T04:54:18.307Z,5.80
2022-09-22T04:55:18.304Z,6.50
2022-09-22T04:56:18.273Z,5.80
2022-09-22T04:57:20.414Z,7.50
2022-09-22T04:58:18.284Z,7.90
2022-09-22T04:59:18.379Z,7.50
2022-09-22T05:00:18.238Z,7.70
2022-09-22T05:01:18.238Z,6.50
2022-09-22T05:02:18.205Z,6.50
2022-09-22T05:03:22.192Z,7.20
2022-09-22T05:04:18.181Z,8.80
2022-09-22T05:05:18.182Z,6.60
2022-09-22T05:06:18.144Z,7.30
2022-09-22T05:07:18.117Z,8.60
2022-09-22T05:08:18.130Z,6.70
2022-09-22T05:09:18.114Z,6.50
2022-09-22T05:10:18.131Z,9.50
2022-09-22T05:11:18.073Z,9.20
2022-09-22T05:12:18.061Z,10.20
2022-09-22T05:13:18.061Z,7.90
2022-09-22T05:14:21.615Z,6.80
2022-09-22T05:15:18.063Z,7.10
2022-09-22T05:16:18.057Z,8.20
2022-09-22T05:17:18.000Z,8.90
2022-09-22T05:18:17.991Z,7.20
2022-09-22T05:19:17.978Z,9.20
2022-09-22T05:20:17.982Z,8.20
2022-09-22T05:21:18.019Z,7.90
2022-09-22T05:22:17.931Z,8.60
2022-09-22T05:23:17.925Z,5.80
2022-09-22T05:24:17.914Z,8.20
2022-09-22T05:25:17.892Z,8.50
2022-09-22T05:26:17.876Z,8.50
2022-09-22T05:27:17.873Z,9.20
2022-09-22T05:28:17.845Z,8.00
2022-09-22T05:29:17.866Z,7.50
2022-09-22T05:30:17.821Z,8.50
2022-09-22T05:31:17.861Z,8.30
2022-09-22T05:32:17.811Z,7.50
2022-09-22T05:33:17.840Z,7.10
2022-09-22T05:34:17.785Z,7.30
2022-09-22T05:35:17.783Z,8.30
2022-09-22T05:36:17.754Z,9.10
2022-09-22T05:37:17.789Z,7.90
2022-09-22T05:38:17.738Z,8.90
2022-09-22T05:39:17.704Z,7.60
2022-09-22T05:40:17.749Z,9.20
2022-09-22T05:41:17.675Z,8.60
2022-09-22T05:42:17.697Z,6.20
2022-09-22T05:43:17.676Z,6.30
2022-09-22T05:44:17.650Z,5.80
2022-09-22T05:45:17.636Z,6.30
2022-09-22T05:46:17.687Z,6.90
2022-09-22T05:47:17.594Z,6.20
2022-09-22T05:48:17.585Z,6.50
2022-09-22T05:49:17.585Z,8.10
2022-09-22T05:50:17.549Z,8.90
2022-09-22T05:51:17.555Z,7.00
2022-09-22T05:52:17.555Z,8.30
2022-09-22T05:53:17.540Z,9.90
2022-09-22T05:54:22.573Z,8.50
2022-09-22T05:55:17.510Z,9.40
2022-09-22T05:56:17.490Z,10.30
2022-09-22T05:57:17.473Z,7.30
2022-09-22T05:58:17.478Z,7.70
2022-09-22T05:59:17.436Z,6.70
2022-09-22T06:00:17.443Z,5.60
2022-09-22T06:01:17.577Z,8.40
2022-09-22T06:02:25.551Z,7.80
2022-09-22T06:03:17.387Z,7.10
2022-09-22T06:04:17.484Z,11.30
2022-09-22T06:05:19.357Z,7.90
2022-09-22T06:06:17.349Z,7.60
2022-09-22T06:07:17.343Z,7.90
2022-09-22T06:08:17.333Z,8.60
2022-09-22T06:09:17.334Z,8.80
2022-09-22T06:10:17.298Z,8.90
2022-09-22T06:11:17.309Z,8.90
2022-09-22T06:12:17.301Z,7.60
2022-09-22T06:13:17.276Z,7.40
2022-09-22T06:14:17.230Z,7.10
2022-09-22T06:15:17.224Z,7.50
2022-09-22T06:16:17.290Z,10.70
2022-09-22T06:17:17.211Z,6.80
2022-09-22T06:18:20.750Z,9.10
2022-09-22T06:19:17.184Z,7.10
2022-09-22T06:20:17.192Z,9.10
2022-09-22T06:21:17.178Z,8.70
2022-09-22T06:22:17.137Z,8.70
2022-09-22T06:23:17.160Z,7.30
2022-09-22T06:24:17.115Z,7.80
2022-09-22T06:25:17.099Z,5.90
2022-09-22T06:26:17.232Z,7.50
2022-09-22T06:27:17.078Z,8.70
2022-09-22T06:28:17.089Z,8.10
2022-09-22T06:29:17.067Z,7.40
2022-09-22T06:30:17.053Z,7.30
2022-09-22T06:31:17.063Z,6.40
2022-09-22T06:32:16.984Z,6.00
2022-09-22T06:33:16.995Z,5.90
2022-09-22T06:34:17.014Z,7.30
2022-09-22T06:35:16.967Z,7.40
2022-09-22T06:36:16.940Z,11.00
2022-09-22T06:37:16.960Z,7.90
2022-09-22T06:38:16.925Z,9.30
2022-09-22T06:39:16.935Z,7.20
2022-09-22T06:40:17.723Z,8.00
2022-09-22T06:41:16.904Z,7.00
2022-09-22T06:42:16.876Z,5.30
2022-09-22T06:43:16.869Z,10.70
2022-09-22T06:44:17.279Z,6.90
2022-09-22T06:45:16.824Z,7.10
2022-09-22T06:46:16.883Z,7.80
2022-09-22T06:47:16.834Z,8.80
2022-09-22T06:48:16.794Z,8.10
2022-09-22T06:49:16.772Z,7.30
2022-09-22T06:50:16.795Z,5.50
2022-09-22T06:51:16.783Z,6.90
2022-09-22T06:52:16.742Z,7.60
2022-09-22T06:53:16.781Z,9.70
2022-09-22T06:54:16.713Z,7.20
2022-09-22T06:55:16.717Z,5.90
2022-09-22T06:56:16.681Z,9.40
2022-09-22T06:57:16.688Z,7.20
2022-09-22T06:58:16.684Z,7.80
2022-09-22T06:59:16.658Z,7.30
2022-09-22T07:00:16.652Z,10.10
2022-09-22T07:01:16.773Z,6.40
2022-09-22T07:02:16.799Z,6.30
2022-09-22T07:03:16.700Z,7.10
2022-09-22T07:04:16.601Z,6.90
2022-09-22T07:05:16.571Z,7.90
2022-09-22T07:06:20.023Z,6.70
2022-09-22T07:07:16.538Z,5.30
2022-09-22T07:08:16.540Z,9.30
2022-09-22T07:09:16.539Z,8.10
2022-09-22T07:10:16.527Z,5.90
2022-09-22T07:11:16.497Z,5.80
2022-09-22T07:12:16.470Z,5.50
2022-09-22T07:13:16.544Z,6.80
2022-09-22T07:14:16.439Z,7.40
2022-09-22T07:15:16.471Z,7.10
2022-09-22T07:16:16.535Z,5.20
2022-09-22T07:17:16.422Z,7.40
2022-09-22T07:18:16.391Z,9.00
2022-09-22T07:19:16.379Z,6.30
2022-09-22T07:20:16.423Z,8.10
2022-09-22T07:21:16.394Z,7.20
2022-09-22T07:22:16.354Z,7.80
2022-09-22T07:23:16.333Z,6.70
2022-09-22T07:24:16.318Z,6.10
2022-09-22T07:25:16.344Z,5.60
2022-09-22T07:26:16.284Z,8.90
2022-09-22T07:27:16.280Z,6.10
2022-09-22T07:28:16.262Z,6.90
2022-09-22T07:29:16.267Z,8.30
2022-09-22T07:30:16.252Z,6.90
2022-09-22T07:31:16.263Z,8.50
2022-09-22T07:32:16.230Z,5.20
2022-09-22T07:33:16.226Z,7.40
2022-09-22T07:34:16.213Z,5.90
2022-09-22T07:35:16.180Z,7.60
2022-09-22T07:36:16.195Z,5.50
2022-09-22T07:37:16.148Z,5.40
2022-09-22T07:38:16.129Z,5.70
2022-09-22T07:39:16.139Z,6.10
2022-09-22T07:40:16.140Z,6.20
2022-09-22T07:41:16.130Z,5.50
2022-09-22T07:42:16.072Z,6.30
2022-09-22T07:43:16.065Z,4.50
2022-09-22T07:44:16.065Z,6.60
2022-09-22T07:45:16.030Z,6.00
2022-09-22T07:46:16.126Z,7.00
2022-09-22T07:47:16.041Z,5.50
2022-09-22T07:48:16.035Z,6.30
2022-09-22T07:49:15.982Z,4.70
2022-09-22T07:50:15.975Z,6.00
2022-09-22T07:51:17.034Z,5.50
2022-09-22T07:52:15.962Z,5.60
2022-09-22T07:53:15.935Z,3.90
2022-09-22T07:54:15.965Z,4.20
2022-09-22T07:55:15.909Z,3.80
2022-09-22T07:56:15.907Z,6.00
2022-09-22T07:57:15.899Z,4.90
2022-09-22T07:58:17.471Z,5.20
2022-09-22T07:59:15.933Z,4.80
2022-09-22T08:00:15.849Z,4.60
2022-09-22T08:01:15.904Z,4.30
2022-09-22T08:02:15.884Z,5.00
2022-09-22T08:03:15.803Z,4.40
2022-09-22T08:04:15.796Z,3.30
2022-09-22T08:05:15.761Z,5.40
2022-09-22T08:06:16.100Z,5.90
2022-09-22T08:07:15.770Z,4.50
2022-09-22T08:08:15.779Z,4.00
2022-09-22T08:09:15.710Z,6.00
2022-09-22T08:10:15.716Z,6.40
2022-09-22T08:11:15.694Z,4.30
2022-09-22T08:12:15.723Z,4.10
2022-09-22T08:13:15.663Z,4.10
2022-09-22T08:14:15.703Z,4.40
2022-09-22T08:15:15.616Z,5.90
2022-09-22T08:16:15.685Z,3.50
2022-09-22T08:17:15.692Z,4.30
2022-09-22T08:18:15.658Z,3.60
2022-09-22T08:19:15.593Z,4.20
2022-09-22T08:20:15.584Z,5.30
2022-09-22T08:21:15.592Z,4.10
2022-09-22T08:22:15.597Z,2.70
2022-09-22T08:23:15.536Z,3.20
2022-09-22T08:24:15.516Z,5.30
2022-09-22T08:25:15.515Z,5.10
2022-09-22T08:26:15.493Z,3.60
2022-09-22T08:27:15.470Z,3.70
2022-09-22T08:28:15.527Z,4.00
2022-09-22T08:29:15.472Z,3.10
2022-09-22T08:30:15.477Z,3.40
2022-09-22T08:31:15.544Z,3.50
2022-09-22T08:32:15.445Z,3.80
2022-09-22T08:33:15.405Z,2.90
2022-09-22T08:34:15.384Z,4.80
2022-09-22T08:35:15.395Z,3.80
2022-09-22T08:36:15.381Z,3.30
2022-09-22T08:37:15.377Z,4.20
2022-09-22T08:38:15.350Z,4.10
2022-09-22T08:39:15.304Z,3.90
2022-09-22T08:40:15.362Z,4.20
2022-09-22T08:41:15.301Z,3.80
2022-09-22T08:42:15.292Z,3.50
2022-09-22T08:43:15.281Z,2.70
2022-09-22T08:44:15.246Z,3.70
2022-09-22T08:45:15.243Z,5.80
2022-09-22T08:46:15.235Z,4.30
2022-09-22T08:47:15.224Z,3.00
2022-09-22T08:48:15.207Z,3.50
2022-09-22T08:49:15.190Z,4.60
2022-09-22T08:50:15.203Z,4.40
2022-09-22T08:51:15.155Z,5.50
2022-09-22T08:52:15.135Z,3.60
2022-09-22T08:53:15.125Z,3.80
2022-09-22T08:54:15.158Z,4.50
2022-09-22T08:55:15.104Z,3.40
2022-09-22T08:56:15.085Z,2.80
2022-09-22T08:57:15.063Z,3.30
2022-09-22T08:58:15.109Z,5.80
2022-09-22T08:59:15.098Z,2.90
2022-09-22T09:00:15.069Z,4.90
2022-09-22T09:01:15.068Z,3.40
2022-09-22T09:02:15.065Z,2.40
2022-09-22T09:03:15.107Z,3.10
2022-09-22T09:04:14.999Z,3.70
2022-09-22T09:05:14.997Z,3.80
2022-09-22T09:06:14.967Z,3.70
2022-09-22T09:07:14.970Z,3.60
2022-09-22T09:08:14.945Z,2.50
2022-09-22T09:09:14.919Z,3.00
2022-09-22T09:10:14.913Z,3.10
2022-09-22T09:11:14.935Z,3.00
2022-09-22T09:12:14.915Z,3.10
2022-09-22T09:13:14.896Z,2.60
2022-09-22T09:14:14.877Z,3.30
2022-09-22T09:15:14.884Z,4.60
2022-09-22T09:16:14.870Z,3.90
2022-09-22T09:17:14.854Z,3.30
2022-09-22T09:18:14.784Z,3.30
2022-09-22T09:19:14.783Z,4.00
2022-09-22T09:20:14.809Z,4.30
2022-09-22T09:21:14.788Z,5.10
2022-09-22T09:22:14.754Z,2.50
2022-09-22T09:23:14.760Z,3.90
2022-09-22T09:25:23.071Z,4.20
2022-09-22T09:26:14.701Z,2.30
2022-09-22T09:27:14.694Z,3.40
2022-09-22T09:28:14.669Z,2.90
2022-09-22T09:29:14.631Z,5.60
2022-09-22T09:30:14.634Z,2.30
2022-09-22T09:31:15.239Z,2.60
2022-09-22T09:32:14.627Z,2.50
2022-09-22T09:33:14.599Z,2.40
2022-09-22T09:34:14.573Z,2.70
2022-09-22T09:35:14.573Z,2.90
2022-09-22T09:37:14.596Z,3.30
2022-09-22T09:38:14.535Z,3.60
2022-09-22T09:39:14.514Z,3.20
2022-09-22T09:40:14.548Z,4.10
2022-09-22T09:41:14.534Z,3.00
2022-09-22T09:42:14.516Z,2.20
2022-09-22T09:43:14.463Z,3.90
2022-09-22T09:44:19.474Z,3.90
2022-09-22T09:45:14.452Z,1.90
2022-09-22T09:46:14.477Z,2.10
2022-09-22T09:47:14.454Z,3.20
2022-09-22T09:48:14.415Z,2.80
2022-09-22T09:49:14.391Z,1.70
2022-09-22T09:50:14.365Z,2.30
2022-09-22T09:51:14.357Z,2.90
2022-09-22T09:52:14.379Z,2.20
2022-09-22T09:53:14.339Z,3.60
2022-09-22T09:54:16.938Z,1.70
2022-09-22T09:55:14.345Z,3.40
2022-09-22T09:56:14.286Z,2.00
2022-09-22T09:57:14.361Z,2.60
2022-09-22T09:58:14.301Z,2.20
2022-09-22T09:59:14.265Z,2.50
2022-09-22T10:00:14.369Z,4.10
2022-09-22T10:01:14.373Z,2.60
2022-09-22T10:02:14.238Z,2.20
2022-09-22T10:03:14.215Z,2.40
2022-09-22T10:04:14.190Z,1.90
2022-09-22T10:05:14.234Z,1.70
2022-09-22T10:06:14.168Z,1.80
2022-09-22T10:07:14.165Z,2.50
2022-09-22T10:08:14.133Z,3.00
2022-09-22T10:09:14.126Z,2.30
2022-09-22T10:10:14.130Z,2.70
2022-09-22T10:11:14.124Z,2.50
2022-09-22T10:12:14.102Z,1.80
2022-09-22T10:13:17.471Z,2.20
2022-09-22T10:14:14.067Z,3.00
2022-09-22T10:15:14.050Z,3.10
2022-09-22T10:16:14.122Z,2.90
2022-09-22T10:17:14.008Z,3.20
2022-09-22T10:18:14.002Z,4.30
2022-09-22T10:19:13.992Z,2.20
2022-09-22T10:20:14.022Z,2.50
2022-09-22T10:21:13.982Z,2.40
2022-09-22T10:22:13.980Z,3.10
2022-09-22T10:24:13.902Z,5.50
2022-09-22T10:25:13.903Z,5.50
2022-09-22T10:26:13.922Z,2.40
2022-09-22T10:27:13.858Z,2.20
2022-09-22T10:28:13.951Z,2.60
2022-09-22T10:29:13.871Z,2.50
2022-09-22T10:30:13.875Z,3.40
2022-09-22T10:31:13.882Z,3.50
2022-09-22T10:32:13.824Z,3.00
2022-09-22T10:33:13.803Z,4.70
2022-09-22T10:34:13.797Z,3.50
2022-09-22T10:35:13.799Z,4.50
2022-09-22T10:36:13.759Z,1.30
2022-09-22T10:37:13.773Z,2.60
2022-09-22T10:38:13.725Z,4.10
2022-09-22T10:39:13.734Z,1.50
2022-09-22T10:40:13.829Z,2.10
2022-09-22T10:41:13.725Z,1.80
2022-09-22T10:42:13.667Z,1.50
2022-09-22T10:43:13.697Z,2.30
2022-09-22T10:44:35.004Z,1.80
2022-09-22T10:45:13.665Z,2.50
2022-09-22T10:46:13.683Z,1.80
2022-09-22T10:47:13.604Z,2.90
2022-09-22T10:48:13.702Z,1.60
2022-09-22T10:49:13.586Z,2.30
2022-09-22T10:50:13.599Z,4.60
2022-09-22T10:51:13.551Z,2.80
2022-09-22T10:52:13.540Z,3.20
2022-09-22T10:53:13.541Z,2.50
2022-09-22T10:54:13.539Z,2.30
2022-09-22T10:55:13.500Z,3.80
2022-09-22T10:56:13.515Z,1.40
2022-09-22T10:57:13.491Z,1.70
2022-09-22T10:58:13.543Z,1.50
2022-09-22T10:59:13.453Z,2.30
2022-09-22T11:00:13.467Z,2.40
2022-09-22T11:01:13.471Z,1.50
2022-09-22T11:02:13.412Z,1.90
2022-09-22T11:03:13.417Z,2.00
2022-09-22T11:04:13.439Z,2.30
2022-09-22T11:05:13.370Z,4.70
2022-09-22T11:06:13.381Z,1.50
2022-09-22T11:07:13.356Z,2.70
2022-09-22T11:08:13.353Z,2.80
2022-09-22T11:09:13.318Z,1.30
2022-09-22T11:10:13.326Z,3.90
2022-09-22T11:11:13.288Z,2.00
2022-09-22T11:12:13.323Z,3.00
2022-09-22T11:13:13.272Z,2.40
2022-09-22T11:14:13.262Z,3.40
2022-09-22T11:15:13.236Z,3.20
2022-09-22T11:16:13.263Z,3.40
2022-09-22T11:17:13.279Z,1.40
2022-09-22T11:18:13.224Z,3.70
2022-09-22T11:19:13.178Z,3.00
2022-09-22T11:20:13.217Z,2.60
2022-09-22T11:21:13.167Z,2.80
2022-09-22T11:22:13.162Z,3.50
2022-09-22T11:23:13.129Z,2.30
2022-09-22T11:24:13.127Z,2.40
2022-09-22T11:25:13.106Z,1.90
2022-09-22T11:26:13.131Z,2.40
2022-09-22T11:27:13.074Z,1.70
2022-09-22T11:28:13.064Z,5.80
2022-09-22T11:29:13.041Z,2.40
2022-09-22T11:30:13.106Z,2.10
2022-09-22T11:31:13.101Z,1.60
2022-09-22T11:32:12.995Z,2.40
2022-09-22T11:33:13.008Z,1.90
2022-09-22T11:34:12.985Z,2.10
2022-09-22T11:35:12.994Z,4.80
2022-09-22T11:36:12.962Z,1.30
2022-09-22T11:37:12.976Z,2.20
2022-09-22T11:38:12.922Z,2.50
2022-09-22T11:39:12.918Z,4.60
2022-09-22T11:40:12.971Z,2.70
2022-09-22T11:41:12.890Z,2.50
2022-09-22T11:42:12.902Z,3.10
2022-09-22T11:43:12.859Z,2.50
2022-09-22T11:44:12.859Z,2.30
2022-09-22T11:45:12.829Z,2.90
2022-09-22T11:46:12.917Z,3.20
2022-09-22T11:47:12.810Z,8.00
2022-09-22T11:48:12.790Z,2.20
2022-09-22T11:49:12.775Z,3.30
2022-09-22T11:50:12.755Z,4.00
2022-09-22T11:51:12.760Z,2.00
2022-09-22T11:52:17.242Z,2.50
2022-09-22T11:53:12.739Z,3.00
2022-09-22T11:54:12.693Z,2.70
2022-09-22T11:55:12.692Z,4.50
2022-09-22T11:56:12.721Z,1.60
2022-09-22T11:57:12.665Z,2.90
2022-09-22T11:58:12.667Z,2.90
2022-09-22T11:59:12.655Z,2.50
2022-09-22T12:00:12.627Z,2.90
2022-09-22T12:01:13.564Z,4.20
2022-09-22T12:02:12.799Z,3.80
2022-09-22T12:03:12.741Z,3.50
2022-09-22T12:04:12.605Z,2.10
2022-09-22T12:05:12.556Z,2.80
2022-09-22T12:06:12.542Z,4.60
2022-09-22T12:07:12.544Z,2.80
2022-09-22T12:08:12.523Z,4.70
2022-09-22T12:09:12.506Z,3.20
2022-09-22T12:10:12.520Z,2.80
2022-09-22T12:11:12.483Z,1.10
2022-09-22T12:12:12.459Z,6.40
2022-09-22T12:13:12.477Z,2.10
2022-09-22T12:14:12.587Z,6.20
2022-09-22T12:15:12.450Z,3.30
2022-09-22T12:16:12.423Z,5.90
2022-09-22T12:17:12.429Z,3.70
2022-09-22T12:18:12.411Z,4.60
2022-09-22T12:19:12.405Z,3.20
2022-09-22T12:20:12.428Z,2.90
2022-09-22T12:21:12.359Z,3.10
2022-09-22T12:22:12.318Z,2.10
2022-09-22T12:23:12.315Z,4.10
2022-09-22T12:24:12.340Z,2.30
2022-09-22T12:25:20.769Z,3.10
2022-09-22T12:26:12.301Z,3.50
2022-09-22T12:27:12.290Z,2.40
2022-09-22T12:28:12.299Z,2.40
2022-09-22T12:29:12.350Z,3.60
2022-09-22T12:30:13.769Z,2.50
2022-09-22T12:31:12.346Z,2.80
2022-09-22T12:32:12.200Z,3.60
2022-09-22T12:33:12.197Z,2.30
2022-09-22T12:34:12.193Z,3.10
2022-09-22T12:35:12.163Z,3.30
2022-09-22T12:36:12.155Z,3.30
2022-09-22T12:37:12.195Z,1.70
2022-09-22T12:38:12.120Z,2.20
2022-09-22T12:39:12.168Z,3.40
2022-09-22T12:40:12.145Z,1.80
2022-09-22T12:41:12.109Z,3.50
2022-09-22T12:42:12.062Z,2.90
2022-09-22T12:43:12.078Z,1.90
2022-09-22T12:44:12.056Z,1.60
2022-09-22T12:45:12.068Z,2.50
2022-09-22T12:46:12.067Z,2.00
2022-09-22T12:48:11.979Z,5.20
2022-09-22T12:49:12.034Z,3.30
2022-09-22T12:50:12.014Z,3.10
2022-09-22T12:51:11.979Z,3.30
2022-09-22T12:52:11.947Z,4.10
2022-09-22T12:53:11.924Z,3.10
2022-09-22T12:54:11.913Z,2.70
2022-09-22T12:55:11.944Z,1.30
2022-09-22T12:56:11.906Z,2.80
2022-09-22T12:57:11.882Z,5.70
2022-09-22T12:58:11.845Z,5.30
2022-09-22T12:59:11.853Z,3.90
2022-09-22T13:00:11.826Z,2.70
2022-09-22T13:01:11.966Z,2.80
2022-09-22T13:02:11.862Z,3.10
2022-09-22T13:03:11.781Z,3.10
2022-09-22T13:04:11.791Z,2.90
2022-09-22T13:05:11.780Z,3.80
2022-09-22T13:06:11.761Z,4.80
2022-09-22T13:07:11.760Z,2.80
2022-09-22T13:08:11.731Z,2.30
2022-09-22T13:09:11.714Z,2.90
2022-09-22T13:10:11.720Z,1.70
2022-09-22T13:11:11.695Z,1.30
2022-09-22T13:12:11.663Z,3.70
2022-09-22T13:13:11.669Z,1.20
2022-09-22T13:14:15.257Z,2.20
2022-09-22T13:15:11.674Z,3.10
2022-09-22T13:16:11.642Z,2.10
2022-09-22T13:17:11.638Z,1.60
2022-09-22T13:18:11.596Z,3.40
2022-09-22T13:19:11.590Z,2.30
2022-09-22T13:20:11.610Z,2.70
2022-09-22T13:21:11.553Z,5.30
2022-09-22T13:22:11.547Z,11.30